Terminal Aerodrome Forecast
Issued by NWS

Current Version | Previous Version | Text Only | Print | Product List | Glossary On
Versions: 1 2 3 4 5 6 7 8 9 10 11 12 13 14 15 16 17 18 19 20 21 22 23 24 25 26 27 28 29
637
FTUS41 KGYX 262320
TAFPSM
TAF
KPSM 262320Z 2700/2724 13007KT P6SM FEW060 OVC200
     FM270600 08003KT P6SM SCT025 OVC050
     FM270800 11004KT 5SM BR OVC019
     FM271200 12005KT P6SM BKN100 BKN250=

USA.gov is the U.S. government's official web portal to all federal, state and local government web resources and services.